sensor_id;sensor_type;location;lat;lon;timestamp;temperature;humidity
21493;DHT22;10908;50.690;4.400;2023-04-05T00:01:26;2.40;76.70
21493;DHT22;10908;50.690;4.400;2023-04-05T00:03:56;2.40;76.90
21493;DHT22;10908;50.690;4.400;2023-04-05T00:06:26;2.40;76.80
21493;DHT22;10908;50.690;4.400;2023-04-05T00:09:00;2.20;76.90
21493;DHT22;10908;50.690;4.400;2023-04-05T00:11:30;2.10;77.40
21493;DHT22;10908;50.690;4.400;2023-04-05T00:13:59;2.30;77.60
21493;DHT22;10908;50.690;4.400;2023-04-05T00:16:26;2.50;77.30
21493;DHT22;10908;50.690;4.400;2023-04-05T00:18:53;2.70;76.80
21493;DHT22;10908;50.690;4.400;2023-04-05T00:21:19;3.10;75.70
21493;DHT22;10908;50.690;4.400;2023-04-05T00:23:53;2.90;74.80
21493;DHT22;10908;50.690;4.400;2023-04-05T00:26:20;2.50;75.20
21493;DHT22;10908;50.690;4.400;2023-04-05T00:28:49;2.30;76.40
21493;DHT22;10908;50.690;4.400;2023-04-05T00:31:16;2.10;77.10
21493;DHT22;10908;50.690;4.400;2023-04-05T00:33:42;2.00;77.40
21493;DHT22;10908;50.690;4.400;2023-04-05T00:36:15;1.90;77.80
21493;DHT22;10908;50.690;4.400;2023-04-05T00:38:43;1.80;78.20
21493;DHT22;10908;50.690;4.400;2023-04-05T00:41:10;1.80;78.30
21493;DHT22;10908;50.690;4.400;2023-04-05T00:43:35;1.70;78.50
21493;DHT22;10908;50.690;4.400;2023-04-05T00:46:01;1.70;78.80
21493;DHT22;10908;50.690;4.400;2023-04-05T00:48:28;1.80;78.90
21493;DHT22;10908;50.690;4.400;2023-04-05T00:50:54;1.90;78.70
21493;DHT22;10908;50.690;4.400;2023-04-05T00:53:20;1.70;78.60
21493;DHT22;10908;50.690;4.400;2023-04-05T00:55:47;1.60;79.10
21493;DHT22;10908;50.690;4.400;2023-04-05T00:58:16;1.60;79.40
21493;DHT22;10908;50.690;4.400;2023-04-05T01:03:22;1.60;79.70
21493;DHT22;10908;50.690;4.400;2023-04-05T01:05:54;1.60;79.80
21493;DHT22;10908;50.690;4.400;2023-04-05T01:11:18;1.50;80.20
21493;DHT22;10908;50.690;4.400;2023-04-05T01:13:45;1.60;80.20
21493;DHT22;10908;50.690;4.400;2023-04-05T01:16:11;1.60;80.10
21493;DHT22;10908;50.690;4.400;2023-04-05T01:18:36;1.60;79.90
21493;DHT22;10908;50.690;4.400;2023-04-05T01:29:33;1.80;79.40
21493;DHT22;10908;50.690;4.400;2023-04-05T01:32:10;2.00;78.80
21493;DHT22;10908;50.690;4.400;2023-04-05T01:34:58;2.20;77.90
21493;DHT22;10908;50.690;4.400;2023-04-05T01:37:30;1.90;77.60
21493;DHT22;10908;50.690;4.400;2023-04-05T01:39:57;2.40;77.00
21493;DHT22;10908;50.690;4.400;2023-04-05T01:42:24;2.30;76.50
21493;DHT22;10908;50.690;4.400;2023-04-05T01:44:51;1.90;77.00
21493;DHT22;10908;50.690;4.400;2023-04-05T01:47:17;1.60;77.70
21493;DHT22;10908;50.690;4.400;2023-04-05T01:49:42;1.40;78.50
21493;DHT22;10908;50.690;4.400;2023-04-05T01:52:08;1.30;79.20
21493;DHT22;10908;50.690;4.400;2023-04-05T01:54:34;1.30;79.80
21493;DHT22;10908;50.690;4.400;2023-04-05T01:56:59;1.20;80.20
21493;DHT22;10908;50.690;4.400;2023-04-05T01:59:25;1.30;80.40
21493;DHT22;10908;50.690;4.400;2023-04-05T02:01:51;1.30;80.40
21493;DHT22;10908;50.690;4.400;2023-04-05T02:04:17;1.20;80.20
21493;DHT22;10908;50.690;4.400;2023-04-05T02:06:42;1.20;80.50
21493;DHT22;10908;50.690;4.400;2023-04-05T02:09:08;1.10;80.60
21493;DHT22;10908;50.690;4.400;2023-04-05T02:11:34;1.00;80.80
21493;DHT22;10908;50.690;4.400;2023-04-05T02:13:59;0.90;81.10
21493;DHT22;10908;50.690;4.400;2023-04-05T02:16:25;1.00;81.30
21493;DHT22;10908;50.690;4.400;2023-04-05T02:18:54;0.90;81.60
21493;DHT22;10908;50.690;4.400;2023-04-05T02:21:22;0.90;81.60
21493;DHT22;10908;50.690;4.400;2023-04-05T02:23:48;0.90;81.70
21493;DHT22;10908;50.690;4.400;2023-04-05T02:26:14;0.90;81.90
21493;DHT22;10908;50.690;4.400;2023-04-05T02:28:40;1.00;82.00
21493;DHT22;10908;50.690;4.400;2023-04-05T02:31:09;1.30;81.80
21493;DHT22;10908;50.690;4.400;2023-04-05T02:33:37;1.30;80.70
21493;DHT22;10908;50.690;4.400;2023-04-05T02:36:04;1.10;80.20
21493;DHT22;10908;50.690;4.400;2023-04-05T02:38:32;1.00;80.30
21493;DHT22;10908;50.690;4.400;2023-04-05T02:40:57;0.90;80.70
21493;DHT22;10908;50.690;4.400;2023-04-05T02:43:23;0.80;81.10
21493;DHT22;10908;50.690;4.400;2023-04-05T02:45:50;0.70;81.30
21493;DHT22;10908;50.690;4.400;2023-04-05T02:48:15;0.60;81.70
21493;DHT22;10908;50.690;4.400;2023-04-05T02:50:41;0.60;82.10
21493;DHT22;10908;50.690;4.400;2023-04-05T02:53:07;0.60;82.40
21493;DHT22;10908;50.690;4.400;2023-04-05T02:55:32;0.60;82.70
21493;DHT22;10908;50.690;4.400;2023-04-05T02:57:59;0.70;82.80
21493;DHT22;10908;50.690;4.400;2023-04-05T03:00:25;0.60;82.40
21493;DHT22;10908;50.690;4.400;2023-04-05T03:02:52;0.60;82.30
21493;DHT22;10908;50.690;4.400;2023-04-05T03:05:17;0.80;82.20
21493;DHT22;10908;50.690;4.400;2023-04-05T03:07:45;0.60;82.00
21493;DHT22;10908;50.690;4.400;2023-04-05T03:10:12;0.60;82.30
21493;DHT22;10908;50.690;4.400;2023-04-05T03:12:39;0.40;82.70
21493;DHT22;10908;50.690;4.400;2023-04-05T03:15:05;0.40;83.30
21493;DHT22;10908;50.690;4.400;2023-04-05T03:17:31;0.40;83.60
21493;DHT22;10908;50.690;4.400;2023-04-05T03:19:56;0.50;83.70
21493;DHT22;10908;50.690;4.400;2023-04-05T03:22:22;0.50;83.70
21493;DHT22;10908;50.690;4.400;2023-04-05T03:24:47;0.50;83.70
21493;DHT22;10908;50.690;4.400;2023-04-05T03:27:13;0.50;83.50
21493;DHT22;10908;50.690;4.400;2023-04-05T03:29:41;0.50;83.50
21493;DHT22;10908;50.690;4.400;2023-04-05T03:32:07;0.50;83.50
21493;DHT22;10908;50.690;4.400;2023-04-05T03:34:36;0.60;83.30
21493;DHT22;10908;50.690;4.400;2023-04-05T03:37:03;0.60;82.90
21493;DHT22;10908;50.690;4.400;2023-04-05T03:39:28;0.80;82.40
21493;DHT22;10908;50.690;4.400;2023-04-05T03:41:54;0.80;81.80
21493;DHT22;10908;50.690;4.400;2023-04-05T03:44:21;0.90;81.50
21493;DHT22;10908;50.690;4.400;2023-04-05T03:46:46;1.10;81.10
21493;DHT22;10908;50.690;4.400;2023-04-05T03:49:12;1.40;80.00
21493;DHT22;10908;50.690;4.400;2023-04-05T03:51:38;1.30;79.20
21493;DHT22;10908;50.690;4.400;2023-04-05T03:54:03;1.10;79.00
21493;DHT22;10908;50.690;4.400;2023-04-05T03:56:29;0.90;79.40
21493;DHT22;10908;50.690;4.400;2023-04-05T03:58:55;0.90;79.70
21493;DHT22;10908;50.690;4.400;2023-04-05T04:01:21;0.90;79.70
21493;DHT22;10908;50.690;4.400;2023-04-05T04:03:46;0.60;79.90
21493;DHT22;10908;50.690;4.400;2023-04-05T04:06:12;0.60;80.40
21493;DHT22;10908;50.690;4.400;2023-04-05T04:08:38;0.40;80.60
21493;DHT22;10908;50.690;4.400;2023-04-05T04:11:04;0.40;80.90
21493;DHT22;10908;50.690;4.400;2023-04-05T04:13:30;0.30;81.10
21493;DHT22;10908;50.690;4.400;2023-04-05T04:15:56;0.20;81.50
21493;DHT22;10908;50.690;4.400;2023-04-05T04:18:22;0.20;81.80
21493;DHT22;10908;50.690;4.400;2023-04-05T04:20:48;0.10;82.00
21493;DHT22;10908;50.690;4.400;2023-04-05T04:23:14;0.10;82.30
21493;DHT22;10908;50.690;4.400;2023-04-05T04:25:40;0.20;82.50
21493;DHT22;10908;50.690;4.400;2023-04-05T04:28:10;0.20;82.20
21493;DHT22;10908;50.690;4.400;2023-04-05T04:30:37;0.20;82.00
21493;DHT22;10908;50.690;4.400;2023-04-05T04:33:03;0.20;82.00
21493;DHT22;10908;50.690;4.400;2023-04-05T04:35:31;0.10;82.00
21493;DHT22;10908;50.690;4.400;2023-04-05T04:38:04;0.20;82.10
21493;DHT22;10908;50.690;4.400;2023-04-05T04:40:32;0.10;82.10
21493;DHT22;10908;50.690;4.400;2023-04-05T04:43:14;0.10;82.50
21493;DHT22;10908;50.690;4.400;2023-04-05T04:45:43;0.00;82.80
21493;DHT22;10908;50.690;4.400;2023-04-05T04:48:11;-3276.70;83.20
21493;DHT22;10908;50.690;4.400;2023-04-05T04:50:38;0.00;83.50
21493;DHT22;10908;50.690;4.400;2023-04-05T04:53:04;0.00;83.50
21493;DHT22;10908;50.690;4.400;2023-04-05T04:55:30;0.00;83.90
21493;DHT22;10908;50.690;4.400;2023-04-05T04:57:58;0.00;84.20
21493;DHT22;10908;50.690;4.400;2023-04-05T05:00:24;0.10;84.20
21493;DHT22;10908;50.690;4.400;2023-04-05T05:02:51;0.10;83.80
21493;DHT22;10908;50.690;4.400;2023-04-05T05:05:17;0.10;83.30
21493;DHT22;10908;50.690;4.400;2023-04-05T05:07:46;0.20;82.80
21493;DHT22;10908;50.690;4.400;2023-04-05T05:10:12;0.20;82.30
21493;DHT22;10908;50.690;4.400;2023-04-05T05:12:41;0.20;82.00
21493;DHT22;10908;50.690;4.400;2023-04-05T05:15:07;0.10;81.90
21493;DHT22;10908;50.690;4.400;2023-04-05T05:17:33;0.10;82.20
21493;DHT22;10908;50.690;4.400;2023-04-05T05:20:00;0.10;82.40
21493;DHT22;10908;50.690;4.400;2023-04-05T05:22:26;0.10;82.70
21493;DHT22;10908;50.690;4.400;2023-04-05T05:24:52;0.30;82.90
21493;DHT22;10908;50.690;4.400;2023-04-05T05:27:18;0.20;82.60
21493;DHT22;10908;50.690;4.400;2023-04-05T05:29:44;0.30;82.40
21493;DHT22;10908;50.690;4.400;2023-04-05T05:32:10;0.70;82.10
21493;DHT22;10908;50.690;4.400;2023-04-05T05:34:41;0.80;80.90
21493;DHT22;10908;50.690;4.400;2023-04-05T05:37:07;0.70;80.30
21493;DHT22;10908;50.690;4.400;2023-04-05T05:39:34;0.80;80.10
21493;DHT22;10908;50.690;4.400;2023-04-05T05:42:01;0.70;80.00
21493;DHT22;10908;50.690;4.400;2023-04-05T05:44:28;0.60;80.00
21493;DHT22;10908;50.690;4.400;2023-04-05T05:46:53;0.50;80.20
21493;DHT22;10908;50.690;4.400;2023-04-05T05:49:19;0.50;80.70
21493;DHT22;10908;50.690;4.400;2023-04-05T05:51:45;0.50;80.60
21493;DHT22;10908;50.690;4.400;2023-04-05T05:54:11;0.50;80.90
21493;DHT22;10908;50.690;4.400;2023-04-05T05:56:37;0.40;81.00
21493;DHT22;10908;50.690;4.400;2023-04-05T05:59:03;0.50;81.00
21493;DHT22;10908;50.690;4.400;2023-04-05T06:01:28;0.60;81.40
21493;DHT22;10908;50.690;4.400;2023-04-05T06:03:54;0.70;81.50
21493;DHT22;10908;50.690;4.400;2023-04-05T06:06:20;0.80;81.40
21493;DHT22;10908;50.690;4.400;2023-04-05T06:08:46;0.90;81.20
21493;DHT22;10908;50.690;4.400;2023-04-05T06:11:19;1.00;81.10
21493;DHT22;10908;50.690;4.400;2023-04-05T06:13:45;1.10;80.90
21493;DHT22;10908;50.690;4.400;2023-04-05T06:16:11;1.20;80.90
21493;DHT22;10908;50.690;4.400;2023-04-05T06:18:37;1.40;80.70
21493;DHT22;10908;50.690;4.400;2023-04-05T06:21:02;1.70;80.30
21493;DHT22;10908;50.690;4.400;2023-04-05T06:23:28;1.90;79.50
21493;DHT22;10908;50.690;4.400;2023-04-05T06:25:54;2.30;78.70
21493;DHT22;10908;50.690;4.400;2023-04-05T06:28:21;2.60;77.50
21493;DHT22;10908;50.690;4.400;2023-04-05T06:30:47;2.60;76.80
21493;DHT22;10908;50.690;4.400;2023-04-05T06:33:13;2.40;76.70
21493;DHT22;10908;50.690;4.400;2023-04-05T06:35:38;2.40;77.30
21493;DHT22;10908;50.690;4.400;2023-04-05T06:38:04;2.50;77.70
21493;DHT22;10908;50.690;4.400;2023-04-05T06:40:30;2.60;77.80
21493;DHT22;10908;50.690;4.400;2023-04-05T06:42:55;2.80;77.50
21493;DHT22;10908;50.690;4.400;2023-04-05T06:45:21;3.00;77.10
21493;DHT22;10908;50.690;4.400;2023-04-05T06:47:47;3.10;76.30
21493;DHT22;10908;50.690;4.400;2023-04-05T06:50:13;3.20;75.60
21493;DHT22;10908;50.690;4.400;2023-04-05T06:52:38;3.20;75.40
21493;DHT22;10908;50.690;4.400;2023-04-05T06:55:04;3.20;75.50
21493;DHT22;10908;50.690;4.400;2023-04-05T06:57:30;3.40;75.30
21493;DHT22;10908;50.690;4.400;2023-04-05T06:59:55;3.40;74.80
21493;DHT22;10908;50.690;4.400;2023-04-05T07:02:21;3.50;74.30
21493;DHT22;10908;50.690;4.400;2023-04-05T07:04:47;3.60;73.40
21493;DHT22;10908;50.690;4.400;2023-04-05T07:07:13;3.80;73.10
21493;DHT22;10908;50.690;4.400;2023-04-05T07:09:39;3.90;72.40
21493;DHT22;10908;50.690;4.400;2023-04-05T07:12:07;4.10;72.10
21493;DHT22;10908;50.690;4.400;2023-04-05T07:14:35;4.30;70.90
21493;DHT22;10908;50.690;4.400;2023-04-05T07:17:01;4.30;69.00
21493;DHT22;10908;50.690;4.400;2023-04-05T07:19:27;4.40;68.80
21493;DHT22;10908;50.690;4.400;2023-04-05T07:21:54;4.50;68.00
21493;DHT22;10908;50.690;4.400;2023-04-05T07:24:19;4.60;67.60
21493;DHT22;10908;50.690;4.400;2023-04-05T07:26:45;4.80;66.50
21493;DHT22;10908;50.690;4.400;2023-04-05T07:29:11;4.80;65.20
21493;DHT22;10908;50.690;4.400;2023-04-05T07:31:38;4.90;64.60
21493;DHT22;10908;50.690;4.400;2023-04-05T07:34:04;4.90;63.70
21493;DHT22;10908;50.690;4.400;2023-04-05T07:36:31;5.00;63.30
21493;DHT22;10908;50.690;4.400;2023-04-05T07:38:57;5.10;63.40
21493;DHT22;10908;50.690;4.400;2023-04-05T07:41:27;5.10;63.00
21493;DHT22;10908;50.690;4.400;2023-04-05T07:43:59;5.20;63.00
21493;DHT22;10908;50.690;4.400;2023-04-05T07:46:24;5.30;62.70
21493;DHT22;10908;50.690;4.400;2023-04-05T07:48:51;5.40;62.60
21493;DHT22;10908;50.690;4.400;2023-04-05T07:51:17;5.50;62.20
21493;DHT22;10908;50.690;4.400;2023-04-05T07:53:43;5.60;61.30
21493;DHT22;10908;50.690;4.400;2023-04-05T07:56:09;5.60;61.00
21493;DHT22;10908;50.690;4.400;2023-04-05T07:58:36;5.70;60.40
21493;DHT22;10908;50.690;4.400;2023-04-05T08:01:06;5.70;60.30
21493;DHT22;10908;50.690;4.400;2023-04-05T08:03:33;5.80;60.30
21493;DHT22;10908;50.690;4.400;2023-04-05T08:06:11;5.90;59.70
21493;DHT22;10908;50.690;4.400;2023-04-05T08:08:37;6.00;59.10
21493;DHT22;10908;50.690;4.400;2023-04-05T08:11:03;6.10;58.90
21493;DHT22;10908;50.690;4.400;2023-04-05T08:13:29;6.20;59.10
21493;DHT22;10908;50.690;4.400;2023-04-05T08:15:56;6.20;59.50
21493;DHT22;10908;50.690;4.400;2023-04-05T08:18:21;6.30;57.90
21493;DHT22;10908;50.690;4.400;2023-04-05T08:20:54;6.40;58.90
21493;DHT22;10908;50.690;4.400;2023-04-05T08:23:20;6.40;56.10
21493;DHT22;10908;50.690;4.400;2023-04-05T08:25:46;6.50;54.70
21493;DHT22;10908;50.690;4.400;2023-04-05T08:28:11;6.50;54.40
21493;DHT22;10908;50.690;4.400;2023-04-05T08:30:38;6.60;56.60
21493;DHT22;10908;50.690;4.400;2023-04-05T08:33:03;6.70;57.40
21493;DHT22;10908;50.690;4.400;2023-04-05T08:35:30;6.70;55.70
21493;DHT22;10908;50.690;4.400;2023-04-05T08:37:55;6.90;54.80
21493;DHT22;10908;50.690;4.400;2023-04-05T08:40:26;7.00;54.10
21493;DHT22;10908;50.690;4.400;2023-04-05T08:43:13;7.00;53.80
21493;DHT22;10908;50.690;4.400;2023-04-05T08:45:51;7.10;53.00
21493;DHT22;10908;50.690;4.400;2023-04-05T08:48:18;7.10;52.60
21493;DHT22;10908;50.690;4.400;2023-04-05T08:50:50;7.10;53.80
21493;DHT22;10908;50.690;4.400;2023-04-05T08:53:17;7.20;54.20
21493;DHT22;10908;50.690;4.400;2023-04-05T08:55:43;7.30;54.70
21493;DHT22;10908;50.690;4.400;2023-04-05T08:58:12;7.50;53.50
21493;DHT22;10908;50.690;4.400;2023-04-05T09:00:40;7.40;50.60
21493;DHT22;10908;50.690;4.400;2023-04-05T09:03:11;7.50;48.50
21493;DHT22;10908;50.690;4.400;2023-04-05T09:05:38;7.60;50.30
21493;DHT22;10908;50.690;4.400;2023-04-05T09:08:05;7.70;50.70
21493;DHT22;10908;50.690;4.400;2023-04-05T09:10:31;7.80;50.20
21493;DHT22;10908;50.690;4.400;2023-04-05T09:12:58;7.90;50.70
21493;DHT22;10908;50.690;4.400;2023-04-05T09:15:25;8.00;50.20
21493;DHT22;10908;50.690;4.400;2023-04-05T09:17:51;7.90;50.10
21493;DHT22;10908;50.690;4.400;2023-04-05T09:20:19;7.90;48.60
21493;DHT22;10908;50.690;4.400;2023-04-05T09:22:45;8.00;49.10
21493;DHT22;10908;50.690;4.400;2023-04-05T09:28:00;8.10;50.20
21493;DHT22;10908;50.690;4.400;2023-04-05T09:30:27;8.20;50.40
21493;DHT22;10908;50.690;4.400;2023-04-05T09:32:54;8.30;50.10
21493;DHT22;10908;50.690;4.400;2023-04-05T09:35:21;8.30;50.90
21493;DHT22;10908;50.690;4.400;2023-04-05T09:38:05;8.30;48.40
21493;DHT22;10908;50.690;4.400;2023-04-05T09:40:43;8.30;48.20
21493;DHT22;10908;50.690;4.400;2023-04-05T09:43:39;8.30;47.30
21493;DHT22;10908;50.690;4.400;2023-04-05T09:46:05;8.30;47.90
21493;DHT22;10908;50.690;4.400;2023-04-05T09:48:49;8.30;47.00
21493;DHT22;10908;50.690;4.400;2023-04-05T09:51:18;8.40;46.70
21493;DHT22;10908;50.690;4.400;2023-04-05T09:54:01;8.50;50.70
21493;DHT22;10908;50.690;4.400;2023-04-05T09:56:29;8.60;50.50
21493;DHT22;10908;50.690;4.400;2023-04-05T09:59:08;8.60;48.10
21493;DHT22;10908;50.690;4.400;2023-04-05T10:01:50;8.60;48.00
21493;DHT22;10908;50.690;4.400;2023-04-05T10:04:18;8.60;48.40
21493;DHT22;10908;50.690;4.400;2023-04-05T10:06:44;8.80;48.10
21493;DHT22;10908;50.690;4.400;2023-04-05T10:09:10;8.80;48.70
21493;DHT22;10908;50.690;4.400;2023-04-05T10:11:37;8.90;45.30
21493;DHT22;10908;50.690;4.400;2023-04-05T10:14:05;8.80;46.90
21493;DHT22;10908;50.690;4.400;2023-04-05T10:16:36;8.60;44.60
21493;DHT22;10908;50.690;4.400;2023-04-05T10:19:05;8.50;45.90
21493;DHT22;10908;50.690;4.400;2023-04-05T10:21:35;8.70;46.90
21493;DHT22;10908;50.690;4.400;2023-04-05T10:24:17;8.80;46.00
21493;DHT22;10908;50.690;4.400;2023-04-05T10:27:13;8.80;47.90
21493;DHT22;10908;50.690;4.400;2023-04-05T10:29:50;8.90;45.20
21493;DHT22;10908;50.690;4.400;2023-04-05T10:32:29;9.10;44.30
21493;DHT22;10908;50.690;4.400;2023-04-05T10:35:03;9.10;44.20
21493;DHT22;10908;50.690;4.400;2023-04-05T10:40:31;9.30;46.70
21493;DHT22;10908;50.690;4.400;2023-04-05T10:42:57;9.30;44.20
21493;DHT22;10908;50.690;4.400;2023-04-05T10:45:24;9.30;45.00
21493;DHT22;10908;50.690;4.400;2023-04-05T10:48:17;9.40;46.20
21493;DHT22;10908;50.690;4.400;2023-04-05T10:50:46;9.40;45.40
21493;DHT22;10908;50.690;4.400;2023-04-05T10:53:14;9.40;42.50
21493;DHT22;10908;50.690;4.400;2023-04-05T10:55:41;9.50;43.80
21493;DHT22;10908;50.690;4.400;2023-04-05T10:58:09;9.50;45.50
21493;DHT22;10908;50.690;4.400;2023-04-05T11:00:34;9.60;45.20
21493;DHT22;10908;50.690;4.400;2023-04-05T11:03:00;9.60;44.60
21493;DHT22;10908;50.690;4.400;2023-04-05T11:05:34;9.80;46.30
21493;DHT22;10908;50.690;4.400;2023-04-05T11:08:05;9.80;44.60
21493;DHT22;10908;50.690;4.400;2023-04-05T11:10:34;9.90;43.70
21493;DHT22;10908;50.690;4.400;2023-04-05T11:18:08;9.90;44.40
21493;DHT22;10908;50.690;4.400;2023-04-05T11:20:48;10.00;47.90
21493;DHT22;10908;50.690;4.400;2023-04-05T11:23:22;10.20;46.70
21493;DHT22;10908;50.690;4.400;2023-04-05T11:25:51;10.30;45.20
21493;DHT22;10908;50.690;4.400;2023-04-05T11:28:22;10.30;43.60
21493;DHT22;10908;50.690;4.400;2023-04-05T11:30:50;10.30;43.10
21493;DHT22;10908;50.690;4.400;2023-04-05T11:36:11;10.20;42.50
21493;DHT22;10908;50.690;4.400;2023-04-05T11:38:38;10.10;42.20
21493;DHT22;10908;50.690;4.400;2023-04-05T11:43:32;10.10;43.40
21493;DHT22;10908;50.690;4.400;2023-04-05T11:46:01;10.20;42.90
21493;DHT22;10908;50.690;4.400;2023-04-05T11:48:30;10.20;42.10
21493;DHT22;10908;50.690;4.400;2023-04-05T11:50:56;10.30;41.30
21493;DHT22;10908;50.690;4.400;2023-04-05T11:53:22;10.30;40.80
21493;DHT22;10908;50.690;4.400;2023-04-05T11:55:49;10.00;40.40
21493;DHT22;10908;50.690;4.400;2023-04-05T11:58:23;10.10;42.20
21493;DHT22;10908;50.690;4.400;2023-04-05T12:01:04;10.00;41.20
21493;DHT22;10908;50.690;4.400;2023-04-05T12:03:31;10.10;42.50
21493;DHT22;10908;50.690;4.400;2023-04-05T12:05:59;10.20;42.90
21493;DHT22;10908;50.690;4.400;2023-04-05T12:08:58;10.40;43.50
21493;DHT22;10908;50.690;4.400;2023-04-05T12:11:28;10.50;41.60
21493;DHT22;10908;50.690;4.400;2023-04-05T12:13:59;10.60;42.00
21493;DHT22;10908;50.690;4.400;2023-04-05T12:16:26;10.60;41.80
21493;DHT22;10908;50.690;4.400;2023-04-05T12:18:53;10.50;41.30
21493;DHT22;10908;50.690;4.400;2023-04-05T12:21:19;10.60;42.50
21493;DHT22;10908;50.690;4.400;2023-04-05T12:23:45;10.80;42.00
21493;DHT22;10908;50.690;4.400;2023-04-05T12:26:12;10.90;44.90
21493;DHT22;10908;50.690;4.400;2023-04-05T12:28:52;10.90;42.30
21493;DHT22;10908;50.690;4.400;2023-04-05T12:34:03;10.90;41.10
21493;DHT22;10908;50.690;4.400;2023-04-05T12:36:29;10.80;39.80
21493;DHT22;10908;50.690;4.400;2023-04-05T12:38:59;10.80;42.10
21493;DHT22;10908;50.690;4.400;2023-04-05T12:41:29;10.90;43.70
21493;DHT22;10908;50.690;4.400;2023-04-05T12:43:55;11.10;42.40
21493;DHT22;10908;50.690;4.400;2023-04-05T12:49:27;11.40;41.20
21493;DHT22;10908;50.690;4.400;2023-04-05T12:51:53;11.40;40.60
21493;DHT22;10908;50.690;4.400;2023-04-05T12:54:22;11.50;41.80
21493;DHT22;10908;50.690;4.400;2023-04-05T12:56:52;11.50;42.40
21493;DHT22;10908;50.690;4.400;2023-04-05T12:59:22;11.50;42.70
21493;DHT22;10908;50.690;4.400;2023-04-05T13:01:48;11.70;43.50
21493;DHT22;10908;50.690;4.400;2023-04-05T13:04:13;11.80;42.80
21493;DHT22;10908;50.690;4.400;2023-04-05T13:06:39;11.90;43.10
21493;DHT22;10908;50.690;4.400;2023-04-05T13:09:05;11.90;41.40
21493;DHT22;10908;50.690;4.400;2023-04-05T13:11:31;12.00;42.80
21493;DHT22;10908;50.690;4.400;2023-04-05T13:13:57;12.00;41.60
21493;DHT22;10908;50.690;4.400;2023-04-05T13:16:23;12.10;41.90
21493;DHT22;10908;50.690;4.400;2023-04-05T13:18:49;11.90;40.00
21493;DHT22;10908;50.690;4.400;2023-04-05T13:21:15;12.00;42.40
21493;DHT22;10908;50.690;4.400;2023-04-05T13:23:40;12.00;41.40
21493;DHT22;10908;50.690;4.400;2023-04-05T13:26:06;12.00;42.40
21493;DHT22;10908;50.690;4.400;2023-04-05T13:28:32;12.10;42.10
21493;DHT22;10908;50.690;4.400;2023-04-05T13:30:58;12.10;41.00
21493;DHT22;10908;50.690;4.400;2023-04-05T13:33:24;12.30;42.60
21493;DHT22;10908;50.690;4.400;2023-04-05T13:35:50;12.40;39.00
21493;DHT22;10908;50.690;4.400;2023-04-05T13:38:16;12.50;40.90
21493;DHT22;10908;50.690;4.400;2023-04-05T13:40:42;12.30;39.30
21493;DHT22;10908;50.690;4.400;2023-04-05T13:43:07;12.40;40.80
21493;DHT22;10908;50.690;4.400;2023-04-05T13:45:33;12.40;42.50
21493;DHT22;10908;50.690;4.400;2023-04-05T13:47:59;12.40;42.40
21493;DHT22;10908;50.690;4.400;2023-04-05T13:50:27;12.40;40.90
21493;DHT22;10908;50.690;4.400;2023-04-05T13:52:52;12.40;41.40
21493;DHT22;10908;50.690;4.400;2023-04-05T13:55:18;12.40;41.40
21493;DHT22;10908;50.690;4.400;2023-04-05T13:57:44;12.60;41.60
21493;DHT22;10908;50.690;4.400;2023-04-05T14:00:10;12.70;41.50
21493;DHT22;10908;50.690;4.400;2023-04-05T14:02:36;12.60;41.20
21493;DHT22;10908;50.690;4.400;2023-04-05T14:05:01;12.40;38.90
21493;DHT22;10908;50.690;4.400;2023-04-05T14:07:27;12.30;39.10
21493;DHT22;10908;50.690;4.400;2023-04-05T14:09:53;12.30;38.90
21493;DHT22;10908;50.690;4.400;2023-04-05T14:12:18;12.30;40.50
21493;DHT22;10908;50.690;4.400;2023-04-05T14:14:44;12.30;39.80
21493;DHT22;10908;50.690;4.400;2023-04-05T14:17:10;12.40;39.70
21493;DHT22;10908;50.690;4.400;2023-04-05T14:19:40;12.30;39.50
21493;DHT22;10908;50.690;4.400;2023-04-05T14:22:05;12.30;41.40
21493;DHT22;10908;50.690;4.400;2023-04-05T14:24:31;12.30;39.10
21493;DHT22;10908;50.690;4.400;2023-04-05T14:26:57;12.30;40.80
21493;DHT22;10908;50.690;4.400;2023-04-05T14:29:22;12.40;41.90
21493;DHT22;10908;50.690;4.400;2023-04-05T14:31:48;12.70;42.00
21493;DHT22;10908;50.690;4.400;2023-04-05T14:34:14;12.80;40.60
21493;DHT22;10908;50.690;4.400;2023-04-05T14:36:40;12.80;40.10
21493;DHT22;10908;50.690;4.400;2023-04-05T14:39:07;12.70;39.20
21493;DHT22;10908;50.690;4.400;2023-04-05T14:41:32;12.70;39.20
21493;DHT22;10908;50.690;4.400;2023-04-05T14:43:59;12.70;39.90
21493;DHT22;10908;50.690;4.400;2023-04-05T14:46:25;12.70;40.30
21493;DHT22;10908;50.690;4.400;2023-04-05T14:48:51;12.80;40.70
21493;DHT22;10908;50.690;4.400;2023-04-05T14:51:16;12.70;40.00
21493;DHT22;10908;50.690;4.400;2023-04-05T14:53:42;12.70;38.10
21493;DHT22;10908;50.690;4.400;2023-04-05T14:56:08;12.60;38.90
21493;DHT22;10908;50.690;4.400;2023-04-05T14:58:37;12.50;38.50
21493;DHT22;10908;50.690;4.400;2023-04-05T15:01:03;12.60;39.50
21493;DHT22;10908;50.690;4.400;2023-04-05T15:03:29;12.50;37.80
21493;DHT22;10908;50.690;4.400;2023-04-05T15:05:56;12.40;37.80
21493;DHT22;10908;50.690;4.400;2023-04-05T15:08:22;12.30;38.50
21493;DHT22;10908;50.690;4.400;2023-04-05T15:10:48;12.40;40.80
21493;DHT22;10908;50.690;4.400;2023-04-05T15:13:14;12.40;38.20
21493;DHT22;10908;50.690;4.400;2023-04-05T15:15:40;12.50;38.30
21493;DHT22;10908;50.690;4.400;2023-04-05T15:18:05;12.60;40.80
21493;DHT22;10908;50.690;4.400;2023-04-05T15:20:33;12.70;40.10
21493;DHT22;10908;50.690;4.400;2023-04-05T15:22:59;12.60;39.20
21493;DHT22;10908;50.690;4.400;2023-04-05T15:25:25;12.50;38.90
21493;DHT22;10908;50.690;4.400;2023-04-05T15:27:51;12.60;39.10
21493;DHT22;10908;50.690;4.400;2023-04-05T15:30:18;12.50;38.60
21493;DHT22;10908;50.690;4.400;2023-04-05T15:32:45;12.60;39.20
21493;DHT22;10908;50.690;4.400;2023-04-05T15:35:10;12.60;39.90
21493;DHT22;10908;50.690;4.400;2023-04-05T15:37:36;12.60;40.40
21493;DHT22;10908;50.690;4.400;2023-04-05T15:40:02;12.60;40.70
21493;DHT22;10908;50.690;4.400;2023-04-05T15:55:19;12.60;38.90
21493;DHT22;10908;50.690;4.400;2023-04-05T15:57:45;12.70;39.30
21493;DHT22;10908;50.690;4.400;2023-04-05T16:00:11;12.60;38.10
21493;DHT22;10908;50.690;4.400;2023-04-05T16:02:37;12.60;38.50
21493;DHT22;10908;50.690;4.400;2023-04-05T16:05:03;12.50;38.40
21493;DHT22;10908;50.690;4.400;2023-04-05T16:07:29;12.50;38.20
21493;DHT22;10908;50.690;4.400;2023-04-05T16:09:54;12.50;39.30
21493;DHT22;10908;50.690;4.400;2023-04-05T16:12:20;12.40;38.60
21493;DHT22;10908;50.690;4.400;2023-04-05T16:14:46;12.50;39.80
21493;DHT22;10908;50.690;4.400;2023-04-05T16:17:11;12.40;38.40
21493;DHT22;10908;50.690;4.400;2023-04-05T16:19:37;12.50;38.70
21493;DHT22;10908;50.690;4.400;2023-04-05T16:22:03;12.50;38.40
21493;DHT22;10908;50.690;4.400;2023-04-05T16:24:29;12.50;39.10
21493;DHT22;10908;50.690;4.400;2023-04-05T16:26:55;12.50;39.30
21493;DHT22;10908;50.690;4.400;2023-04-05T16:29:21;12.50;39.00
21493;DHT22;10908;50.690;4.400;2023-04-05T16:31:46;12.50;38.10